createdAt,value
2019-05-07T00:00:09.043Z,5.379028
2019-05-07T00:05:33.122Z,5.288391
2019-05-07T00:10:55.531Z,4.925842
2019-05-07T00:16:18.400Z,4.966125
2019-05-07T00:21:42.242Z,5.006409
2019-05-07T00:27:04.024Z,4.875488
2019-05-07T00:32:26.758Z,4.653931
2019-05-07T00:37:49.411Z,4.804993
2019-05-07T00:43:12.134Z,4.613647
2019-05-07T00:48:35.858Z,4.573364
2019-05-07T00:53:58.503Z,4.573364
2019-05-07T00:59:22.519Z,4.623718
2019-05-07T01:04:45.046Z,4.653931
2019-05-07T01:10:07.677Z,4.694214
2019-05-07T01:15:31.979Z,4.653931
2019-05-07T01:20:53.842Z,4.694214
2019-05-07T01:26:17.210Z,4.754639
2019-05-07T01:31:42.884Z,4.875488
2019-05-07T01:37:03.816Z,5.016479
2019-05-07T01:42:27.317Z,5.056763
2019-05-07T01:47:50.428Z,5.227966
2019-05-07T01:53:14.087Z,5.409241
2019-05-07T01:58:36.902Z,5.509949
2019-05-07T02:04:02.288Z,5.52002
2019-05-07T02:09:24.067Z,5.550232
2019-05-07T02:14:48.155Z,5.509949
2019-05-07T02:20:13.004Z,5.449524
2019-05-07T02:25:33.854Z,5.348816
2019-05-07T02:30:56.531Z,5.167542
2019-05-07T02:36:19.208Z,5.056763
2019-05-07T02:41:43.996Z,4.744568
2019-05-07T02:47:04.835Z,4.261169
2019-05-07T02:52:27.519Z,4.432373
2019-05-07T02:57:50.229Z,4.311523
2019-05-07T03:03:13.995Z,3.898621
2019-05-07T03:08:36.973Z,3.797913
2019-05-07T03:13:59.620Z,3.666992
2019-05-07T03:19:24.136Z,3.838196
2019-05-07T03:24:46.802Z,3.818054
2019-05-07T03:30:16.030Z,4.321594
2019-05-07T03:35:36.966Z,4.512939
2019-05-07T03:40:56.723Z,4.533081
2019-05-07T03:46:23.199Z,4.573364
2019-05-07T03:51:44.131Z,4.533081
2019-05-07T03:57:11.010Z,4.311523
2019-05-07T04:02:33.139Z,4.281311
2019-05-07T04:07:53.909Z,4.341736
2019-05-07T04:13:16.809Z,4.241028
2019-05-07T04:18:39.807Z,4.251099
2019-05-07T04:24:03.479Z,4.281311
2019-05-07T04:29:26.300Z,4.311523
2019-05-07T04:34:53.143Z,4.251099
2019-05-07T04:40:13.641Z,4.210815
